createdAt,value
2022-10-15T00:03:05.598Z,45.20
2022-10-15T00:08:27.505Z,43.22
2022-10-15T00:13:50.499Z,45.70
2022-10-15T00:19:12.527Z,45.75
2022-10-15T00:24:34.383Z,46.00
2022-10-15T00:29:56.313Z,46.80
2022-10-15T00:35:18.287Z,45.08
2022-10-15T00:40:41.252Z,45.88
2022-10-15T00:46:03.735Z,49.90
2022-10-15T00:51:32.988Z,49.72
2022-10-15T00:56:55.595Z,50.95
2022-10-15T01:02:21.073Z,49.80
2022-10-15T01:07:43.286Z,49.17
2022-10-15T01:13:07.755Z,50.08
2022-10-15T01:18:35.378Z,53.22
2022-10-15T01:23:57.168Z,51.22
2022-10-15T01:29:21.969Z,52.92
2022-10-15T01:35:08.458Z,52.42
2022-10-15T01:46:04.445Z,55.50
2022-10-15T01:51:28.426Z,58.10
2022-10-15T01:56:51.599Z,57.50
2022-10-15T02:02:13.566Z,56.95
2022-10-15T02:08:05.177Z,55.55
2022-10-15T02:14:00.447Z,54.10
2022-10-15T02:19:32.978Z,52.80
2022-10-15T02:25:05.159Z,55.75
2022-10-15T02:30:28.681Z,52.75
2022-10-15T02:35:51.491Z,59.92
2022-10-15T02:41:13.648Z,52.88
2022-10-15T02:46:35.496Z,53.85
2022-10-15T02:51:57.321Z,53.40
2022-10-15T02:57:19.187Z,55.80
2022-10-15T03:02:41.211Z,49.88
2022-10-15T03:08:03.261Z,53.22
2022-10-15T03:13:25.079Z,52.08
2022-10-15T03:18:47.745Z,50.70
2022-10-15T03:24:09.659Z,44.97
2022-10-15T03:29:31.487Z,45.95
2022-10-15T03:34:53.306Z,48.08
2022-10-15T03:40:15.205Z,42.00
2022-10-15T03:45:37.179Z,41.03
2022-10-15T03:50:59.033Z,41.72
2022-10-15T03:56:20.889Z,42.92
2022-10-15T04:01:43.950Z,46.53
2022-10-15T04:07:05.800Z,46.35
2022-10-15T04:12:27.655Z,48.58
2022-10-15T04:23:20.463Z,47.67
2022-10-15T04:28:42.598Z,47.53
2022-10-15T04:34:05.293Z,45.83
2022-10-15T04:39:27.105Z,45.78
2022-10-15T04:44:48.950Z,44.30
2022-10-15T04:50:11.043Z,46.15
2022-10-15T04:55:32.885Z,42.72
2022-10-15T05:00:54.717Z,45.70
2022-10-15T05:06:22.027Z,43.97
2022-10-15T05:11:43.922Z,40.85
2022-10-15T05:17:05.768Z,42.63
2022-10-15T05:22:27.641Z,43.10
2022-10-15T05:27:49.501Z,44.38
2022-10-15T05:33:11.610Z,45.00
2022-10-15T05:38:33.446Z,43.38
2022-10-15T05:43:57.720Z,42.17
2022-10-15T05:49:19.552Z,37.22
2022-10-15T05:54:41.449Z,38.60
2022-10-15T06:00:06.554Z,33.63
2022-10-15T06:05:28.387Z,32.22
2022-10-15T06:10:50.317Z,33.60
2022-10-15T06:16:15.529Z,32.40
2022-10-15T06:21:39.821Z,31.05
2022-10-15T06:27:01.668Z,29.58
2022-10-15T06:32:23.480Z,30.13
2022-10-15T06:37:45.362Z,28.70
2022-10-15T06:43:09.938Z,27.42
2022-10-15T06:48:32.202Z,25.95
2022-10-15T06:53:54.061Z,26.83
2022-10-15T06:59:15.960Z,26.08
2022-10-15T07:04:37.827Z,25.10
2022-10-15T07:09:59.680Z,25.23
2022-10-15T07:15:22.416Z,24.30
2022-10-15T07:20:44.274Z,24.83
2022-10-15T07:26:06.182Z,24.45
2022-10-15T07:31:27.998Z,24.13
2022-10-15T07:36:49.830Z,23.10
2022-10-15T07:47:40.634Z,24.70
2022-10-15T07:53:02.470Z,24.33
2022-10-15T07:58:24.296Z,26.65
2022-10-15T08:03:46.641Z,29.20
2022-10-15T08:09:08.502Z,28.95
2022-10-15T08:14:30.438Z,28.40
2022-10-15T08:19:52.286Z,30.17
2022-10-15T08:25:14.251Z,30.27
2022-10-15T08:30:37.380Z,28.20
2022-10-15T08:35:59.290Z,29.15
2022-10-15T08:41:45.256Z,29.05
2022-10-15T08:47:12.889Z,27.77
2022-10-15T08:52:48.328Z,26.40
2022-10-15T08:58:23.993Z,26.65
2022-10-15T09:04:13.846Z,24.07
2022-10-15T09:09:51.280Z,23.70
2022-10-15T09:15:16.943Z,23.70
2022-10-15T09:20:38.893Z,24.80
2022-10-15T09:26:18.354Z,24.75
2022-10-15T09:37:31.336Z,24.65
2022-10-15T09:42:53.679Z,24.00
2022-10-15T09:48:18.531Z,22.10
2022-10-15T09:54:01.911Z,22.73
2022-10-15T09:59:25.585Z,22.92
2022-10-15T10:04:47.514Z,24.38
2022-10-15T10:10:28.368Z,22.95
2022-10-15T10:15:57.614Z,22.20
2022-10-15T10:21:25.271Z,23.15
2022-10-15T10:26:48.151Z,22.13
2022-10-15T10:32:20.733Z,22.25
2022-10-15T10:37:43.195Z,19.25
2022-10-15T10:43:14.157Z,20.67
2022-10-15T10:48:45.108Z,18.25
2022-10-15T10:54:13.438Z,18.77
2022-10-15T10:59:48.270Z,18.15
2022-10-15T11:05:11.954Z,15.77
2022-10-15T11:11:03.379Z,16.08
2022-10-15T11:16:33.330Z,15.27
2022-10-15T11:22:34.912Z,15.52
2022-10-15T11:28:39.968Z,15.73
2022-10-15T11:34:22.655Z,15.70
2022-10-15T11:39:56.795Z,15.75
2022-10-15T11:45:36.093Z,15.20
2022-10-15T11:51:03.278Z,15.40
2022-10-15T11:56:50.395Z,14.32
2022-10-15T12:02:22.388Z,14.80
2022-10-15T12:07:48.113Z,13.80
2022-10-15T12:13:13.064Z,13.68
2022-10-15T12:18:47.686Z,13.70
2022-10-15T12:24:37.515Z,13.90
2022-10-15T12:30:02.453Z,13.45
2022-10-15T12:35:34.229Z,13.15
2022-10-15T12:41:03.339Z,12.98
2022-10-15T12:46:38.186Z,14.00
2022-10-15T12:52:01.781Z,13.45
2022-10-15T12:57:32.882Z,13.40
2022-10-15T13:02:56.628Z,14.02
2022-10-15T13:08:25.174Z,13.35
2022-10-15T13:13:49.244Z,13.52
2022-10-15T13:19:18.860Z,13.30
2022-10-15T13:24:43.010Z,13.35
2022-10-15T13:30:13.426Z,13.52
2022-10-15T13:35:39.233Z,13.85
2022-10-15T13:41:01.350Z,12.93
2022-10-15T13:46:24.507Z,12.95
2022-10-15T13:51:49.793Z,20.02
2022-10-15T13:57:15.485Z,13.85
2022-10-15T14:02:37.422Z,13.10
2022-10-15T14:07:59.258Z,14.00
2022-10-15T14:13:21.133Z,14.45
2022-10-15T14:18:52.719Z,14.00
2022-10-15T14:24:20.851Z,15.55
2022-10-15T14:29:47.919Z,13.25
2022-10-15T14:35:22.998Z,13.68
2022-10-15T14:41:06.425Z,14.13
2022-10-15T14:46:39.908Z,14.65
2022-10-15T14:52:11.876Z,13.13
2022-10-15T14:57:39.852Z,13.75
2022-10-15T15:03:06.496Z,13.80
2022-10-15T15:08:28.392Z,13.50
2022-10-15T15:13:50.750Z,14.57
2022-10-15T15:19:12.590Z,14.07
2022-10-15T15:24:34.447Z,14.93
2022-10-15T15:29:57.460Z,17.65
2022-10-15T15:35:29.132Z,14.63
2022-10-15T15:40:51.101Z,14.65
2022-10-15T15:46:13.380Z,14.25
2022-10-15T15:51:35.208Z,14.30
2022-10-15T15:56:57.479Z,15.65
2022-10-15T16:02:19.309Z,15.15
2022-10-15T16:07:41.406Z,15.82
2022-10-15T16:13:03.317Z,16.17
2022-10-15T16:18:25.533Z,16.88
2022-10-15T16:23:47.400Z,19.33
2022-10-15T16:29:09.297Z,19.52
2022-10-15T16:34:31.209Z,19.77
2022-10-15T16:39:53.061Z,20.48
2022-10-15T16:45:15.103Z,20.95
2022-10-15T16:50:36.957Z,21.58
2022-10-15T16:56:01.509Z,20.08
2022-10-15T17:01:26.782Z,18.88
2022-10-15T17:06:48.710Z,19.60
2022-10-15T17:12:10.583Z,20.13
2022-10-15T17:17:32.449Z,19.77
2022-10-15T17:22:54.352Z,20.08
2022-10-15T17:28:16.287Z,21.13
2022-10-15T17:33:40.057Z,20.52
2022-10-15T17:39:02.238Z,20.30
2022-10-15T17:44:24.186Z,21.00
2022-10-15T17:49:46.281Z,20.70
2022-10-15T17:55:08.759Z,21.85
2022-10-15T18:00:30.681Z,21.48
2022-10-15T18:05:52.593Z,22.67
2022-10-15T18:11:20.909Z,22.90
2022-10-15T18:16:42.863Z,23.17
2022-10-15T18:22:04.707Z,23.42
2022-10-15T18:27:26.814Z,23.83
2022-10-15T18:32:50.425Z,25.58
2022-10-15T18:38:14.134Z,23.90
2022-10-15T18:43:36.095Z,26.13
2022-10-15T18:48:58.456Z,24.67
2022-10-15T18:54:21.443Z,23.30
2022-10-15T18:59:43.434Z,23.58
2022-10-15T19:05:05.778Z,22.83
2022-10-15T19:10:27.697Z,22.77
2022-10-15T19:15:49.554Z,22.63
2022-10-15T19:21:11.723Z,22.23
2022-10-15T19:26:34.433Z,22.02
2022-10-15T19:31:56.314Z,23.70
2022-10-15T19:37:18.222Z,21.88
2022-10-15T19:42:40.114Z,22.88
2022-10-15T19:48:02.632Z,21.15
2022-10-15T19:53:24.647Z,21.23
2022-10-15T19:58:46.552Z,21.45
2022-10-15T20:04:08.437Z,20.85
2022-10-15T20:09:30.399Z,21.25
2022-10-15T20:14:52.275Z,20.63
2022-10-15T20:20:14.231Z,19.02
2022-10-15T20:25:39.491Z,19.48
2022-10-15T20:31:05.421Z,20.20
2022-10-15T20:36:27.870Z,19.33
2022-10-15T20:41:49.720Z,18.95
2022-10-15T20:47:14.239Z,18.65
2022-10-15T20:52:36.118Z,18.27
2022-10-15T20:57:58.047Z,18.25
2022-10-15T21:03:19.898Z,18.15
2022-10-15T21:08:41.718Z,18.55
2022-10-15T21:14:03.542Z,17.63
2022-10-15T21:19:25.540Z,29.48
2022-10-15T21:24:47.477Z,18.65
2022-10-15T21:30:10.320Z,17.85
2022-10-15T21:35:32.568Z,16.00
2022-10-15T21:40:54.442Z,15.75
2022-10-15T21:46:16.616Z,16.40
2022-10-15T21:51:38.465Z,15.60
2022-10-15T21:57:00.383Z,15.18
2022-10-15T22:02:22.340Z,16.52
2022-10-15T22:07:44.176Z,14.63
2022-10-15T22:13:06.112Z,15.00
2022-10-15T22:18:28.067Z,15.35
2022-10-15T22:23:54.108Z,14.48
2022-10-15T22:29:22.348Z,14.03
2022-10-15T22:34:44.269Z,15.45
2022-10-15T22:40:06.339Z,14.95
2022-10-15T22:45:28.361Z,15.82
2022-10-15T22:50:58.299Z,16.98
2022-10-15T22:56:20.239Z,15.98
2022-10-15T23:01:42.228Z,15.57
2022-10-15T23:07:04.214Z,16.00
2022-10-15T23:12:26.473Z,14.15
2022-10-15T23:17:48.408Z,12.77
2022-10-15T23:23:10.315Z,13.98
2022-10-15T23:28:32.504Z,14.48
2022-10-15T23:33:56.275Z,16.23
2022-10-15T23:39:21.215Z,15.35
2022-10-15T23:44:43.072Z,12.98
2022-10-15T23:50:05.381Z,13.45
2022-10-15T23:55:27.476Z,12.95
